Sunday, May 27, 2018, 5:33 AM EDT
Back to Local

KLNS, Lancaster Airport

Location: Lititz, PA, United States Lat: 40.117
Local Time: 5:33 AM EDT ( 9:33 GMT) Lon: -76.3
Time Zone: US/Eastern Elev: 403 ft

Show me the last for .
Show Decoded

2018-05-27 05:07 METAR KLNS 270907Z AUTO 00000KT 3SM BR FEW070 BKN110 22/22 A2987 RMK AO2
                 T02220217 =
2018-05-27 04:53 METAR KLNS 270853Z AUTO 00000KT 2SM BR FEW070 BKN110 22/22 A2987 RMK AO2 RAE10
                 SLP110 P0000 60001 T02220217 51002 =
2018-05-27 04:48 METAR KLNS 270848Z AUTO 00000KT 2SM BR FEW070 BKN110 22/22 A2987 RMK AO2 RAE10
                 P0000 =
2018-05-27 03:53 METAR KLNS 270753Z AUTO 00000KT 5SM -RA BR FEW090 BKN110 23/22 A2987 RMK AO2
                 RAB43 SLP110 P0001 T02280217 =
2018-05-27 02:53 METAR KLNS 270653Z AUTO 15003KT 5SM BR BKN110 23/22 A2987 RMK AO2 SLP109
                 T02280222 =
2018-05-27 01:53 METAR KLNS 270553Z AUTO 00000KT 7SM SCT120 23/22 A2987 RMK AO2 RAE46 SLP111
                 P0001 60003 T02330222 10278 20228 50000 =
2018-05-27 00:53 METAR KLNS 270453Z AUTO 21003KT 9SM -RA FEW037 FEW060 OVC110 24/22 A2988 RMK AO2
                 RAB01 SLP114 P0001 T02390217 403220183 =
2018-05-26 23:53 METAR KLNS 270353Z AUTO 00000KT 10SM BKN120 24/22 A2988 RMK AO2 RAB0254E42
                 SLP115 P0001 T02390222 =
2018-05-26 22:53 METAR KLNS 270253Z 00000KT 10SM FEW110 25/21 A2987 RMK AO2 SLP111 T02500206
                 51015 =
2018-05-26 21:53 METAR KLNS 270153Z 24004KT 10SM CLR 26/21 A2986 RMK AO2 SLP108 T02610206 =
2018-05-26 20:53 METAR KLNS 270053Z 24008KT 10SM CLR 27/20 A2984 RMK AO2 SLP101 T02670200 =
2018-05-26 19:53 METAR KLNS 262353Z 20010KT 10SM CLR 28/21 A2982 RMK AO2 SLP096 T02780211 10322
                 20278 53007 =
2018-05-26 18:53 METAR KLNS 262253Z 26006KT 10SM CLR 31/18 A2980 RMK AO2 LTG DSNT S AND W SLP088
                 T03060178 =
2018-05-26 17:53 METAR KLNS 262153Z 27008KT 10SM CLR 31/17 A2980 RMK AO2 SLP088 T03110172 =
2018-05-26 16:53 METAR KLNS 262053Z 24008G14KT 10SM FEW085 32/17 A2980 RMK AO2 SLP088 T03170172
                 55008 =
2018-05-26 15:53 METAR KLNS 261953Z 26008KT 10SM CLR 32/17 A2979 RMK AO2 SLP085 T03170172 =
2018-05-26 14:53 METAR KLNS 261853Z VRB04KT 10SM FEW060 31/18 A2981 RMK AO2 SLP092 T03110183 =
2018-05-26 13:53 METAR KLNS 261753Z 26007KT 10SM FEW050 31/19 A2983 RMK AO2 SLP096 T03110194
                 10317 20222 58009 =
2018-05-26 12:53 METAR KLNS 261653Z VRB04KT 10SM SCT038 29/21 A2985 RMK AO2 SLP102 T02940211 =
2018-05-26 11:53 METAR KLNS 261553Z 27006KT 10SM CLR 29/21 A2985 RMK AO2 SLP104 T02940211 =
2018-05-26 10:53 METAR KLNS 261453Z 27004KT 10SM CLR 28/22 A2985 RMK AO2 SLP105 T02830217 58005 =
2018-05-26 09:53 METAR KLNS 261353Z 29005KT 9SM CLR 27/21 A2987 RMK AO2 SLP111 T02670206 =
2018-05-26 08:53 METAR KLNS 261253Z 27005KT 7SM SCT060 24/21 A2987 RMK AO2 SLP112 T02440206 =
2018-05-26 07:53 METAR KLNS 261153Z 29003KT 7SM FEW100 22/20 A2987 RMK AO2 SLP111 T02220200 10222
                 20183 53008 =
2018-05-26 06:53 METAR KLNS 261053Z 00000KT 5SM BR CLR 21/19 A2986 RMK AO2 SLP107 T02110194 =
2018-05-26 05:53 METAR KLNS 260953Z 00000KT 3SM BR CLR 19/18 A2985 RMK AO2 SLP105 T01890183 =

Support USWX by starting your Amazon purchase here.